Dorothy, West Virginia
Current Conditions -  °F | °C
As of 10:51 AM on Thursday 23 Oct 2014 (Local Time) from KBKW Reporting Station
Overcast Overcast  
Wind Chill: 40°   Ceiling: 2700
Heat Index: 45°   Visibility: 10mi
Dew Point: 39°   Wind: 10mph
Humidity: 80%   Direction: 330°NNW
Pressure: 30.18"   Gusts: 20mph
Location:  37.95°N, 81.45°W
Report Text: KBKW 231451Z AUTO 33009G17KT 10SM SCT012 OVC027 07/04 A3018 RMK AO2 SLP227 T00720039 50007 TSNO
Loading
Personal Weather Stations






























Interactive Weather Map
Tropical Storm Tracking
New forecast layout! Learn more

10-Day Weather Forecast

Advertisements
Track Severe Weather on mobile